• Join FlightAware (Why Join?)
  • Login
  • US Flag 
01:57AM EDT


 

Airport Tracker/Info


-or-


 

Live Flight TrackerFlight Track Log ✈ C-GKZT ✈ 11-Oct-2013 ✈ KNEW - MBPV / PLS

Flight Track Log - Related Links

Times and Time Zones

All times are in EDT time to prevent confusion due to time zone crossing. See the C-GKZT flight status page for this flight to view local times or setup timezone preferences in your user account.

Time Position Orientation Groundspeed Altitude Reporting Facility
EDT Latitude Longitude Course Direction KTS MPH feet Rate Location/Type
07:45PM 30.0147 -90.0311 181° South 175 201 1,200  Level Houston Center
07:46PM 29.9686 -90.0092 158° South 187 215 3,800 2,280 Climbing Houston Center
07:47PM 29.9156 -89.9444 133° Southeast 225 259 6,000 2,100 Climbing Houston Center
07:48PM 29.8636 -89.8772 132° Southeast 266 306 8,200 2,160 Climbing Houston Center
07:49PM 29.8081 -89.8053 132° Southeast 293 337 10,500 2,160 Climbing Houston Center
07:50PM 29.7708 -89.7164 116° Southeast 310 357 12,700 2,100 Climbing Houston Center
07:51PM 29.7439 -89.6244 109° East 307 353 14,900 2,280 Climbing Houston Center
07:52PM 29.7058 -89.5181 112° Southeast 303 349 17,500 2,280 Climbing Houston Center
07:53PM 29.6794 -89.4283 109° East 300 345 19,700 2,100 Climbing Houston Center
07:54PM 29.6486 -89.3439 113° Southeast 292 336 21,900 2,040 Climbing Houston Center
07:55PM 29.6219 -89.2597 110° East 285 328 23,900 1,440 Climbing Houston Center
07:56PM 29.5903 -89.1697 112° Southeast 296 341 24,900 960 Climbing Houston Center
07:57PM 29.5572 -89.0661 110° East 335 386 25,900 960 Climbing Houston Center
07:58PM 29.5133 -88.9356 111° Southeast 365 420 27,000 900 Climbing Houston Center
07:59PM 29.4731 -88.8222 112° Southeast 382 440 27,800 840 Climbing Houston Center
08:00PM 29.4347 -88.7039 110° East 393 452 28,800 840 Climbing Houston Center
08:01PM 29.3931 -88.5872 112° Southeast 396 456 29,600 780 Climbing Houston Center
08:02PM 29.3547 -88.4667 110° East 402 463 30,500 840 Climbing Houston Center
08:03PM 29.3108 -88.3472 113° Southeast 406 467 31,400 840 Climbing Houston Center
08:04PM 29.2708 -88.2242 110° East 412 474 32,300 1,020 Climbing Houston Center
08:05PM 29.2178 -88.0781 113° Southeast 415 478 33,600 1,080 Climbing Houston Center
08:06PM 29.1786 -87.9564 110° East 410 472 34,600 960 Climbing Houston Center
08:08PM 29.1392 -87.8494 113° Southeast 406 467 35,600 1,080 Climbing Houston Center
08:09PM 29.0900 -87.7097 112° Southeast 398 458 36,900 1,080 Climbing Houston Center
08:10PM 29.0503 -87.5953 112° Southeast 391 450 37,900 960 Climbing Houston Center
08:11PM 29.0106 -87.4842 112° Southeast 382 440 39,000 1,020 Climbing Houston Center
08:12PM 28.9736 -87.3767 111° Southeast 368 423 40,100 900 Climbing Houston Center
08:13PM 28.9364 -87.2733 112° Southeast 357 411 40,900 420 Climbing Houston Center
08:14PM 28.9011 -87.1686 111° Southeast 355 409 41,000  Climbing Houston Center
08:15PM 28.8531 -87.0358 112° Southeast 362 417 41,000  Level Jacksonville Center
08:16PM 28.8069 -86.9156 114° Southeast 384 442 41,000  Level Jacksonville Center
08:17PM 28.7667 -86.7978 111° Southeast 397 457 41,000  Level Jacksonville Center
08:18PM 28.7222 -86.6756 112° Southeast 402 463 41,000  Level Jacksonville Center
08:19PM 28.6758 -86.5506 113° Southeast 416 479 41,000  Level Jacksonville Center
08:20PM 28.6314 -86.4236 112° Southeast 421 484 41,000  Level Jacksonville Center
08:21PM 28.5847 -86.2992 113° Southeast 426 490 41,000  Level Jacksonville Center
08:22PM 28.5381 -86.1653 112° Southeast 431 496 41,000  Level Jacksonville Center
08:23PM 28.4931 -86.0503 114° Southeast 436 502 41,000  Level Jacksonville Center
08:24PM 28.4461 -85.9214 112° Southeast 436 502 41,000  Level Jacksonville Center
08:25PM 28.4011 -85.7928 112° Southeast 436 502 41,000  Level Jacksonville Center
08:26PM 28.3517 -85.6639 114° Southeast 442 509 41,000  Level Jacksonville Center
08:27PM 28.2758 -85.4661 113° Southeast 450 518 41,000  Level Miami Center
08:28PM 28.2311 -85.3428 112° Southeast 444 511 41,000  Level Miami Center
08:29PM 28.1842 -85.2169 113° Southeast 434 499 41,000  Level Miami Center
08:30PM 28.1375 -85.0914 113° Southeast 434 499 41,000  Level Miami Center
08:31PM 28.0925 -84.9658 112° Southeast 427 491 41,000  Level Miami Center
08:32PM 28.0472 -84.8428 113° Southeast 426 490 41,000  Level Miami Center
08:33PM 27.9939 -84.7122 115° Southeast 431 496 41,000  Level Miami Center
08:34PM 27.9303 -84.5786 118° Southeast 436 502 41,000  Level Miami Center
08:35PM 27.8828 -84.4536 113° Southeast 436 502 41,000  Level Miami Center
08:36PM 27.8267 -84.3325 118° Southeast 443 510 41,000  Level Miami Center
08:37PM 27.7683 -84.2092 118° Southeast 443 510 41,000  Level Miami Center
08:38PM 27.7119 -84.0883 118° Southeast 443 510 41,000  Level Miami Center
08:39PM 27.6661 -83.9636 113° Southeast 430 495 41,000  Level Miami Center
08:40PM 27.6117 -83.8408 117° Southeast 447 514 41,000  Level Miami Center
08:41PM 27.5608 -83.7278 117° Southeast 447 514 41,000  Level Miami Center
08:42PM 27.5058 -83.6075 117° Southeast 447 514 41,000  Level Miami Center
08:43PM 27.4511 -83.4828 116° Southeast 447 514 41,000  Level Miami Center
08:44PM 27.3983 -83.3606 116° Southeast 442 509 41,000  Level Miami Center
08:45PM 27.3433 -83.2383 117° Southeast 442 509 41,000  Level Miami Center
08:46PM 27.2883 -83.1164 117° Southeast 442 509 41,000  Level Miami Center
08:47PM 27.2328 -82.9967 118° Southeast 442 509 41,000  Level Miami Center
08:48PM 27.1775 -82.8725 117° Southeast 442 509 41,000  Level Miami Center
08:49PM 27.1222 -82.7483 117° Southeast 442 509 41,000  Level Miami Center
08:50PM 27.0664 -82.6289 118° Southeast 436 502 41,000  Level Miami Center
08:51PM 27.0108 -82.5050 117° Southeast 436 502 41,000  Level Miami Center
08:52PM 26.9550 -82.3836 117° Southeast 442 509 41,000  Level Miami Center
08:53PM 26.8969 -82.2619 118° Southeast 442 509 41,000  Level Miami Center
08:54PM 26.8431 -82.1408 116° Southeast 437 503 41,000  Level Miami Center
08:55PM 26.7847 -82.0219 119° Southeast 437 503 41,000  Level Miami Center
08:56PM 26.7306 -81.8964 116° Southeast 442 509 41,000  Level Miami Center
08:57PM 26.6739 -81.7825 119° Southeast 437 503 41,000  Level Miami Center
08:58PM 26.6217 -81.6617 116° Southeast 437 503 41,000  Level Miami Center
08:59PM 26.5592 -81.5292 118° Southeast 437 503 41,000  Level Miami Center
09:00PM 26.5103 -81.4228 117° Southeast 437 503 41,000  Level Miami Center
09:01PM 26.4556 -81.3025 117° Southeast 437 503 41,000  Level Miami Center
09:02PM 26.4006 -81.1844 117° Southeast 437 503 41,000  Level Miami Center
09:03PM 26.3456 -81.0667 118° Southeast 437 503 41,000  Level Miami Center
09:04PM 26.2803 -80.9392 120° Southeast 437 503 41,000  Level Miami Center
09:05PM 26.2353 -80.8311 115° Southeast 431 496 41,000  Level Miami Center
09:06PM 26.1778 -80.7136 119° Southeast 431 496 41,000  Level Miami Center
09:07PM 26.1244 -80.5983 117° Southeast 426 490 41,000  Level Miami Center
09:08PM 26.0628 -80.4717 118° Southeast 426 490 41,000  Level Miami Center
09:09PM 26.0094 -80.3522 116° Southeast 426 490 41,000  Level Miami Center
09:10PM 25.9514 -80.2372 119° Southeast 426 490 41,000  Level Miami Center
09:11PM 25.8956 -80.1225 118° Southeast 426 490 41,000  Level Miami Center
09:13PM 25.8397 -80.0078 118° Southeast 426 490 41,000  Level Miami Center
09:14PM 25.7736 -79.8700 118° Southeast 426 490 41,000  Level Miami Center
09:15PM 25.7172 -79.7581 119° Southeast 426 490 41,000  Level Miami Center
09:16PM 25.6653 -79.6461 117° Southeast 421 484 41,000  Level Miami Center
09:17PM 25.6067 -79.5342 120° Southeast 421 484 41,000  Level Miami Center
09:18PM 25.5522 -79.4178 117° Southeast 421 484 41,000  Level Miami Center
09:19PM 25.4978 -79.3061 118° Southeast 421 484 41,000  Level Miami Center
09:20PM 25.4533 -79.2156 119° Southeast 421 484 41,000  Level Miami Center
09:21PM 25.3864 -79.0808 119° Southeast 421 484 41,000  Level Miami Center
09:22PM 25.3294 -78.9717 120° Southeast 421 484 41,000  Level Miami Center
09:23PM 25.2725 -78.8628 120° Southeast 421 484 41,000  Level Miami Center
09:24PM 25.2175 -78.7517 119° Southeast 421 484 41,000  Level Miami Center
09:25PM 25.1667 -78.6428 117° Southeast 415 478 41,000  Level Miami Center
09:26PM 25.1094 -78.5342 120° Southeast 409 471 41,000  Level Miami Center
09:27PM 25.0542 -78.4211 118° Southeast 409 471 41,000 180 Level Miami Center
09:28PM 24.9989 -78.3103 119° Southeast 409 471 41,400 600 Climbing Miami Center
09:29PM 24.9456 -78.2089 120° Southeast 403 464 42,200 840 Climbing Miami Center
09:30PM 24.8964 -78.1053 118° Southeast 393 452 43,100 900 Climbing Miami Center
09:31PM 24.8450 -78.0108 121° Southeast 377 434 44,100 900 Climbing Miami Center
09:32PM 24.8017 -77.9189 117° Southeast 356 410 45,000 420 Climbing Miami Center
09:33PM 24.7542 -77.8314 121° Southeast 339 390 45,000  Level Miami Center
09:34PM 24.7089 -77.7419 119° Southeast 339 390 45,000  Level Miami Center
09:35PM 24.6592 -77.6478 120° Southeast 339 390 45,000  Level Miami Center
09:36PM 24.6136 -77.5514 117° Southeast 345 397 45,000  Level Miami Center
09:37PM 24.5639 -77.4553 120° Southeast 351 404 45,000  Level Miami Center
09:38PM 24.5142 -77.3544 118° Southeast 362 417 45,000  Level Miami Center
09:39PM 24.4622 -77.2583 121° Southeast 362 417 45,000  Level Miami Center
09:40PM 24.4142 -77.1578 118° Southeast 362 417 45,000  Level Miami Center
09:41PM 24.3642 -77.0619 120° Southeast 368 423 45,000  Level Miami Center
09:42PM 24.3122 -76.9592 119° Southeast 373 429 45,000  Level Miami Center
09:43PM 24.2600 -76.8589 120° Southeast 378 435 45,000  Level Miami Center
09:44PM 24.2078 -76.7564 119° Southeast 378 435 45,000  Level Miami Center
09:45PM 24.1553 -76.6608 121° Southeast 373 429 45,000  Level Miami Center
09:46PM 24.1111 -76.5697 118° Southeast 373 429 45,000  Level Miami Center
09:47PM 24.0589 -76.4697 120° Southeast 373 429 45,000  Level Miami Center
09:48PM 24.0061 -76.3719 121° Southeast 373 429 45,000  Level Miami Center
09:49PM 23.9536 -76.2700 119° Southeast 378 435 45,000  Level Miami Center
09:50PM 23.9031 -76.1703 119° Southeast 373 429 45,000  Level Miami Center
09:51PM 23.8525 -76.0706 119° Southeast 373 429 45,000  Level Miami Center
09:52PM 23.7975 -75.9731 122° Southeast 378 435 45,000  Level Miami Center
09:53PM 23.7489 -75.8758 119° Southeast 373 429 45,000  Level Miami Center
09:54PM 23.6981 -75.7786 120° Southeast 373 429 45,000  Level Miami Center
09:55PM 23.6408 -75.6681 119° Southeast 373 429 45,000  Level Miami Center
09:56PM 23.5856 -75.5689 121° Southeast 378 435 45,000  Level Miami Center
09:57PM 23.5325 -75.4697 120° Southeast 378 435 45,000  Level Miami Center
09:58PM 23.4772 -75.3750 122° Southeast 378 435 45,000  Level Miami Center
09:59PM 23.4261 -75.2739 119° Southeast 378 435 45,000  Level Miami Center
10:00PM 23.3706 -75.1794 123° Southeast 378 435 45,000  Level Miami Center
10:01PM 23.3214 -75.0828 119° Southeast 383 441 45,000  Level Miami Center
10:02PM 23.2639 -74.9864 123° Southeast 377 434 45,000  Level Miami Center
10:03PM 23.2125 -74.8878 120° Southeast 377 434 45,000 -540 Level Miami Center
10:04PM 23.1589 -74.7847 119° Southeast 382 440 44,000 -1,080 Descending Miami Center
10:05PM 23.0989 -74.6817 122° Southeast 393 452 42,900 -1,440 Descending Miami Center
10:06PM 23.0431 -74.5789 121° Southeast 393 452 41,200 -1,860 Descending Miami Center
10:07PM 22.9892 -74.4806 121° Southeast 393 452 39,200 -2,040 Descending Miami Center
10:08PM 22.9311 -74.3800 122° Southeast 393 452 37,200 -1,980 Descending Miami Center
10:09PM 22.8772 -74.2775 120° Southeast 393 452 35,300 -1,920 Descending Miami Center
10:10PM 22.8211 -74.1725 120° Southeast 398 458 33,500 -1,920 Descending Miami Center
10:11PM 22.7606 -74.0636 121° Southeast 404 465 31,600 -1,860 Descending Miami Center
10:12PM 22.7003 -73.9614 123° Southeast 404 465 29,700 -1,920 Descending Miami Center
10:13PM 22.6419 -73.8567 121° Southeast 404 465 27,800 -1,860 Descending Miami Center
10:14PM 22.5897 -73.7636 121° Southeast 399 459 26,100 -1,740 Descending Miami Center
10:15PM 22.5253 -73.6708 127° Southeast 399 459 24,400 -1,740 Descending Miami Center
10:16PM 22.4544 -73.5892 133° Southeast 386 444 22,600 -1,860 Descending Miami Center
10:17PM 22.4231 -73.4867 108° East 367 422 20,700 -1,980 Descending Miami Center
10:18PM 22.4142 -73.3703 95° East 350 403 18,700 -1,920 Descending Miami Center
10:19PM 22.3908 -73.2697 104° East 350 403 17,000 -5,880 Descending Miami Center
10:20PM 22.3514 -73.1833 116° Southeast 331 381 7,000 -1,680 Descending Miami Center
10:21PM 22.3117 -73.0947 116° Southeast 325 374 13,700 2,520 Climbing Miami Center
10:22PM 22.2739 -73.0083 115° Southeast 319 367 12,100 -1,560 Descending Miami Center
10:23PM 22.2383 -72.9219 114° Southeast 314 361 10,600 -1,620 Descending Miami Center
10:24PM 22.2006 -72.8378 116° Southeast 314 361 9,000 -1,500 Descending Miami Center
10:25PM 22.1631 -72.7606 118° Southeast 309 356 7,700 -1,140 Descending Miami Center
10:26PM 22.1072 -72.7017 136° Southeast 289 333 6,800 -960 Descending Miami Center
10:27PM 22.0533 -72.6475 137° Southeast 271 312 5,800 -1,020 Descending Miami Center
10:29PM 21.8987 -72.4820 137° Southeast  Level FlightAware Approximate
10:36PM 21.7667 -72.2667 118° Southeast  Level FlightAware Approximate
10:37PM 21.7736 -72.2659 118° Southeast  Level Estimated
10:38PM 21.7667 -72.2667 118° Southeast  Level FlightAware Approximate
10:39PM 21.7736 -72.2659 118° Southeast  Level Estimated
10:40PM 21.7667 -72.2667 118° Southeast  Level FlightAware Approximate
10:41PM 21.7736 -72.2659 118° Southeast  Level Estimated
10:42PM 21.7667 -72.2667 118° Southeast  Level FlightAware Approximate
10:43PM 21.7736 -72.2659 118° Southeast  Level Estimated
10:44PM 21.7667 -72.2667 118° Southeast  Level FlightAware Approximate
10:45PM 21.7736 -72.2659 118° Southeast  Level Estimated
10:46PM 21.7667 -72.2667 118° Southeast  Level FlightAware Approximate
10:47PM 21.7736 -72.2659 118° Southeast  Level Estimated